Time;durP1;ratioP1;P1;durP2;ratioP2;P2;SDS_P1;SDS_P2;PMS_P1;PMS_P2;Temp;Humidity;BMP_temperature;BMP_pressure;BME280_temperature;BME280_humidity;BME280_pressure;Samples;Min_cycle;Max_cycle;Signal;HPM_P1;HPM_P2
2022/12/30 00:02:12;;;;;;;7.43;4.63;;;;;;;;;;4997764;28;20275;-92
2022/12/30 00:04:53;;;;;;;6.93;2.80;;;;;;;;;;4993110;28;20221;-92
2022/12/30 00:07:24;;;;;;;4.03;3.67;;;;;;;;;;4998268;28;20264;-93
2022/12/30 00:10:15;;;;;;;6.07;4.10;;;;;;;;;;4997396;28;20252;-91
2022/12/30 00:34:59;;;;;;;4.10;3.07;;;;;;;;;;5003483;28;20375;-90
2022/12/30 00:37:42;;;;;;;5.37;3.13;;;;;;;;;;5003069;28;20316;-92
2022/12/30 00:40:31;;;;;;;13.33;2.13;;;;;;;;;;5000348;28;20216;-91
2022/12/30 00:43:16;;;;;;;8.37;3.90;;;;;;;;;;5004663;28;20230;-90
2022/12/30 00:45:50;;;;;;;2.57;2.40;;;;;;;;;;5000710;28;20256;-91
2022/12/30 00:56:54;;;;;;;4.17;2.57;;;;;;;;;;5002487;28;20201;-90
2022/12/30 00:59:25;;;;;;;4.13;2.80;;;;;;;;;;5003775;28;20265;-90
2022/12/30 01:01:53;;;;;;;2.50;2.30;;;;;;;;;;5003040;28;20194;-90
2022/12/30 01:04:31;;;;;;;2.87;2.67;;;;;;;;;;5002822;28;20336;-90
2022/12/30 01:07:00;;;;;;;5.27;3.50;;;;;;;;;;5004271;28;20252;-89
2022/12/30 01:09:38;;;;;;;3.20;3.10;;;;;;;;;;5006574;28;20213;-89
2022/12/30 01:12:12;;;;;;;10.80;3.07;;;;;;;;;;5012706;28;20193;-92
2022/12/30 01:15:03;;;;;;;;;;;;;;;;;;;;;
2022/12/30 01:17:32;;;;;;;2.97;2.33;;;;;;;;;;5001496;28;20221;-92
2022/12/30 01:20:02;;;;;;;4.37;3.73;;;;;;;;;;4999934;28;20205;-91
2022/12/30 01:22:37;;;;;;;5.23;3.23;;;;;;;;;;5013342;28;20227;-91
2022/12/30 01:25:14;;;;;;;8.27;5.17;;;;;;;;;;5021682;28;20224;-89
2022/12/30 01:27:49;;;;;;;9.57;2.77;;;;;;;;;;5022697;28;20200;-90
2022/12/30 01:30:23;;;;;;;5.03;4.17;;;;;;;;;;5021367;28;20236;-90
2022/12/30 01:32:55;;;;;;;4.97;4.50;;;;;;;;;;5022246;28;20208;-89
2022/12/30 01:35:24;;;;;;;10.47;3.70;;;;;;;;;;5020654;28;20200;-89
2022/12/30 01:37:56;;;;;;;2.93;2.73;;;;;;;;;;5021787;28;20223;-90
2022/12/30 01:40:25;;;;;;;4.00;3.53;;;;;;;;;;5022558;28;20211;-90
2022/12/30 01:43:09;;;;;;;4.23;3.97;;;;;;;;;;5020994;28;20209;-89
2022/12/30 01:45:37;;;;;;;4.80;3.60;;;;;;;;;;5020401;28;20235;-89
2022/12/30 01:48:28;;;;;;;7.50;3.93;;;;;;;;;;5020320;28;20217;-90
2022/12/30 01:51:18;;;;;;;;;;;;;;;;;;;;;
2022/12/30 01:53:50;;;;;;;5.00;2.70;;;;;;;;;;5009038;28;20224;-90
2022/12/30 01:56:34;;;;;;;4.20;2.27;;;;;;;;;;5014870;28;20229;-91
2022/12/30 01:59:18;;;;;;;2.57;2.37;;;;;;;;;;5008049;28;20282;-90
2022/12/30 02:01:52;;;;;;;4.90;4.13;;;;;;;;;;5008226;28;20197;-91
2022/12/30 02:04:28;;;;;;;4.23;3.83;;;;;;;;;;5002867;28;20190;-91
2022/12/30 02:07:02;;;;;;;3.40;3.03;;;;;;;;;;5004000;28;20240;-90
2022/12/30 02:09:34;;;;;;;2.50;1.80;;;;;;;;;;5002702;28;20629;-88
2022/12/30 02:12:03;;;;;;;3.53;3.23;;;;;;;;;;5012006;28;20201;-88
2022/12/30 02:14:36;;;;;;;7.60;3.90;;;;;;;;;;5004863;28;20205;-89
2022/12/30 02:17:11;;;;;;;2.40;2.27;;;;;;;;;;5000778;28;20284;-91
2022/12/30 02:19:57;;;;;;;4.83;3.17;;;;;;;;;;4999942;28;20619;-91
2022/12/30 02:22:29;;;;;;;5.00;2.40;;;;;;;;;;4999227;28;20268;-90
2022/12/30 02:25:12;;;;;;;3.20;2.67;;;;;;;;;;4999579;28;20206;-90
2022/12/30 02:28:02;;;;;;;2.47;2.27;;;;;;;;;;4997720;28;20248;-90
2022/12/30 02:30:36;;;;;;;3.17;2.03;;;;;;;;;;4998711;28;20249;-89
2022/12/30 02:33:24;;;;;;;3.03;2.77;;;;;;;;;;4998551;28;20383;-90
2022/12/30 02:36:01;;;;;;;2.87;2.57;;;;;;;;;;4997485;28;20208;-89
2022/12/30 02:38:38;;;;;;;2.53;2.43;;;;;;;;;;4997195;28;20583;-89
2022/12/30 02:46:47;;;;;;;4.43;3.20;;;;;;;;;;4999131;28;20220;-90
2022/12/30 02:49:24;;;;;;;2.97;2.77;;;;;;;;;;4999754;28;20240;-90
2022/12/30 02:54:41;;;;;;;2.60;2.50;;;;;;;;;;4998190;28;20681;-91
2022/12/30 02:57:25;;;;;;;2.20;2.10;;;;;;;;;;4997929;28;20201;-90
2022/12/30 03:05:44;;;;;;;1.10;1.10;;;;;;;;;;4999074;28;20176;-90
2022/12/30 03:08:17;;;;;;;1.73;1.63;;;;;;;;;;5001924;28;20315;-91
2022/12/30 03:13:35;;;;;;;3.43;1.80;;;;;;;;;;4998632;28;20213;-90
2022/12/30 03:16:11;;;;;;;4.00;3.17;;;;;;;;;;4998930;28;20586;-90
2022/12/30 03:18:42;;;;;;;2.87;2.43;;;;;;;;;;4996576;28;20211;-92
2022/12/30 03:21:16;;;;;;;3.93;1.97;;;;;;;;;;4996116;28;20685;-90
2022/12/30 03:29:20;;;;;;;2.20;2.07;;;;;;;;;;4995568;28;20196;-91
2022/12/30 03:31:51;;;;;;;3.33;2.03;;;;;;;;;;4995903;28;20212;-92
2022/12/30 03:34:21;;;;;;;2.50;2.30;;;;;;;;;;4996265;28;20212;-92
2022/12/30 03:36:55;;;;;;;0.60;0.60;;;;;;;;;;5000980;28;20268;-92
2022/12/30 03:39:24;;;;;;;2.73;2.30;;;;;;;;;;5010461;28;20207;-90
2022/12/30 03:41:53;;;;;;;2.63;1.60;;;;;;;;;;5021387;28;20192;-90
2022/12/30 03:47:15;;;;;;;2.93;2.73;;;;;;;;;;5037115;28;20216;-89
2022/12/30 03:49:43;;;;;;;2.17;2.13;;;;;;;;;;5053255;28;20424;-92
2022/12/30 03:52:14;;;;;;;2.10;1.87;;;;;;;;;;5040988;28;20203;-91
2022/12/30 03:54:42;;;;;;;3.70;1.47;;;;;;;;;;5035733;28;20266;-94
2022/12/30 03:57:11;;;;;;;1.53;1.43;;;;;;;;;;5035461;28;20200;-92
2022/12/30 03:59:41;;;;;;;1.33;1.20;;;;;;;;;;5035177;28;20208;-90
2022/12/30 04:02:09;;;;;;;1.60;1.57;;;;;;;;;;5034284;28;20208;-92
2022/12/30 04:04:37;;;;;;;1.23;1.17;;;;;;;;;;5035757;28;20204;-91
2022/12/30 04:07:06;;;;;;;0.67;0.67;;;;;;;;;;5039405;28;20679;-90
2022/12/30 04:09:38;;;;;;;1.40;1.37;;;;;;;;;;5039178;28;20216;-92
2022/12/30 04:12:06;;;;;;;1.47;1.47;;;;;;;;;;5039328;28;20255;-91
2022/12/30 04:14:34;;;;;;;2.63;2.53;;;;;;;;;;5039552;28;20214;-89
2022/12/30 04:17:02;;;;;;;3.03;1.67;;;;;;;;;;5039695;28;20196;-92
2022/12/30 04:19:31;;;;;;;0.40;0.40;;;;;;;;;;5041145;28;20214;-92
2022/12/30 04:22:06;;;;;;;2.60;1.97;;;;;;;;;;5042377;28;20210;-91
2022/12/30 04:24:41;;;;;;;1.07;1.00;;;;;;;;;;5042562;28;20199;-92
2022/12/30 04:27:16;;;;;;;1.23;1.23;;;;;;;;;;5048601;28;20302;-89
2022/12/30 04:29:50;;;;;;;3.63;2.77;;;;;;;;;;5051357;28;20242;-88
2022/12/30 04:32:22;;;;;;;1.73;1.63;;;;;;;;;;5050608;28;20223;-89
2022/12/30 04:35:03;;;;;;;1.33;1.23;;;;;;;;;;5042572;28;20222;-93
2022/12/30 04:37:32;;;;;;;3.23;2.27;;;;;;;;;;5040266;28;20207;-92
2022/12/30 04:40:02;;;;;;;3.37;2.77;;;;;;;;;;5039117;28;20240;-91
2022/12/30 04:42:32;;;;;;;2.20;1.97;;;;;;;;;;5037961;28;20192;-92
2022/12/30 04:45:00;;;;;;;3.23;2.27;;;;;;;;;;5038830;28;20246;-92
2022/12/30 04:47:29;;;;;;;1.70;1.50;;;;;;;;;;5038289;28;20227;-92
2022/12/30 04:49:58;;;;;;;1.83;1.73;;;;;;;;;;5038781;28;20226;-92
2022/12/30 04:52:25;;;;;;;2.73;2.50;;;;;;;;;;5054605;28;20199;-92
2022/12/30 04:54:54;;;;;;;2.47;2.07;;;;;;;;;;5057362;28;20231;-91
2022/12/30 04:57:23;;;;;;;3.17;2.97;;;;;;;;;;5056817;28;20293;-91
2022/12/30 04:59:53;;;;;;;2.20;1.40;;;;;;;;;;5054846;28;20207;-91
2022/12/30 05:02:21;;;;;;;1.90;1.87;;;;;;;;;;5058378;28;20169;-92
2022/12/30 05:04:51;;;;;;;2.10;2.00;;;;;;;;;;5058445;28;20180;-91
2022/12/30 05:07:23;;;;;;;2.10;2.00;;;;;;;;;;5057779;28;20254;-92
2022/12/30 05:09:53;;;;;;;2.57;2.47;;;;;;;;;;5058245;28;20211;-93
2022/12/30 05:12:22;;;;;;;1.70;1.70;;;;;;;;;;5057651;28;20239;-92
2022/12/30 05:15:03;;;;;;;1.97;1.87;;;;;;;;;;5057516;28;20251;-92
2022/12/30 05:17:35;;;;;;;0.93;0.93;;;;;;;;;;5037688;28;20223;-93
2022/12/30 05:20:06;;;;;;;4.00;1.80;;;;;;;;;;5037989;28;20181;-91
2022/12/30 05:22:34;;;;;;;1.17;1.17;;;;;;;;;;5023156;28;20220;-90
2022/12/30 05:27:48;;;;;;;0.87;0.87;;;;;;;;;;5025619;28;20254;-93
2022/12/30 05:30:20;;;;;;;4.97;1.50;;;;;;;;;;5033651;28;20292;-91
2022/12/30 05:32:49;;;;;;;1.30;1.30;;;;;;;;;;5029053;28;20205;-91
2022/12/30 05:35:19;;;;;;;1.97;1.87;;;;;;;;;;5026936;28;20235;-91
2022/12/30 05:38:01;;;;;;;2.77;1.87;;;;;;;;;;5015465;28;20272;-91
2022/12/30 05:40:30;;;;;;;1.83;1.63;;;;;;;;;;5003639;28;20197;-92
2022/12/30 05:43:03;;;;;;;2.00;2.00;;;;;;;;;;5001980;28;20287;-92
2022/12/30 05:45:37;;;;;;;3.07;2.87;;;;;;;;;;5007832;28;20193;-92
2022/12/30 05:48:05;;;;;;;4.00;1.33;;;;;;;;;;5004247;28;20264;-92
2022/12/30 05:50:35;;;;;;;2.63;2.43;;;;;;;;;;5001031;28;20217;-91
2022/12/30 05:53:03;;;;;;;1.47;1.47;;;;;;;;;;5002222;28;20213;-91
2022/12/30 05:55:33;;;;;;;0.83;0.83;;;;;;;;;;5001306;28;20198;-90
2022/12/30 05:58:00;;;;;;;3.23;2.10;;;;;;;;;;5000622;28;20198;-91
2022/12/30 06:00:28;;;;;;;3.00;1.87;;;;;;;;;;5000189;28;20220;-91
2022/12/30 06:02:58;;;;;;;3.33;1.63;;;;;;;;;;5004815;28;20201;-91
2022/12/30 06:05:27;;;;;;;1.23;1.23;;;;;;;;;;5008695;28;20213;-92
2022/12/30 06:08:03;;;;;;;6.90;1.63;;;;;;;;;;5002018;28;20607;-92
2022/12/30 06:13:31;;;;;;;1.20;1.20;;;;;;;;;;5015603;28;20197;-91
2022/12/30 06:16:05;;;;;;;2.27;2.07;;;;;;;;;;5005735;28;20757;-92
2022/12/30 06:18:35;;;;;;;1.43;1.33;;;;;;;;;;5011492;28;20220;-91
2022/12/30 06:21:03;;;;;;;2.47;1.90;;;;;;;;;;5018997;28;20629;-91
2022/12/30 06:23:32;;;;;;;1.43;1.07;;;;;;;;;;5021943;28;20208;-92
2022/12/30 06:26:00;;;;;;;1.40;1.30;;;;;;;;;;5035294;28;20236;-91
2022/12/30 06:28:36;;;;;;;1.80;1.67;;;;;;;;;;5011256;28;20233;-91
2022/12/30 06:31:03;;;;;;;2.13;1.93;;;;;;;;;;4998551;28;20296;-90
2022/12/30 06:33:37;;;;;;;1.80;1.80;;;;;;;;;;4997186;28;20305;-91
2022/12/30 06:36:15;;;;;;;1.00;0.60;;;;;;;;;;5005115;28;20584;-92
2022/12/30 06:38:47;;;;;;;0.63;0.63;;;;;;;;;;5001240;28;20195;-91
2022/12/30 06:41:15;;;;;;;2.57;1.93;;;;;;;;;;5000362;28;20205;-91
2022/12/30 06:43:43;;;;;;;0.73;0.73;;;;;;;;;;4995787;28;20208;-91
2022/12/30 06:46:15;;;;;;;3.17;2.60;;;;;;;;;;4994509;28;20198;-91
2022/12/30 06:48:43;;;;;;;1.43;1.37;;;;;;;;;;4993707;28;20324;-93
2022/12/30 06:51:13;;;;;;;4.73;2.20;;;;;;;;;;4993446;28;20201;-92
2022/12/30 06:54:01;;;;;;;1.20;0.90;;;;;;;;;;4995005;28;20284;-92
2022/12/30 06:56:31;;;;;;;3.30;2.17;;;;;;;;;;4993350;28;20292;-91
2022/12/30 06:59:07;;;;;;;3.93;1.70;;;;;;;;;;4995953;28;20206;-90
2022/12/30 07:01:50;;;;;;;3.63;2.27;;;;;;;;;;4999332;28;20640;-90
2022/12/30 07:04:38;;;;;;;1.60;1.03;;;;;;;;;;4998158;28;20536;-92
2022/12/30 07:07:21;;;;;;;1.70;1.60;;;;;;;;;;5000112;28;20229;-89
2022/12/30 07:09:52;;;;;;;2.47;1.87;;;;;;;;;;4998071;28;20221;-91
2022/12/30 07:12:23;;;;;;;1.93;1.70;;;;;;;;;;5000347;28;20232;-92
2022/12/30 07:15:00;;;;;;;4.23;1.33;;;;;;;;;;5000673;28;20216;-91
2022/12/30 07:17:43;;;;;;;1.53;1.10;;;;;;;;;;4998885;28;20282;-92
2022/12/30 07:20:24;;;;;;;1.73;1.13;;;;;;;;;;5102357;23;20234;-93
2022/12/30 07:23:09;;;;;;;2.37;2.00;;;;;;;;;;5054887;28;20735;-91
2022/12/30 07:25:47;;;;;;;3.80;2.40;;;;;;;;;;5055598;28;20286;-92
2022/12/30 07:28:27;;;;;;;6.03;3.80;;;;;;;;;;5056911;28;20611;-92
2022/12/30 07:31:04;;;;;;;2.47;2.20;;;;;;;;;;5057928;28;20573;-93
2022/12/30 07:33:46;;;;;;;5.23;3.30;;;;;;;;;;5057648;28;20287;-93
2022/12/30 07:36:23;;;;;;;3.40;2.80;;;;;;;;;;5058241;28;20202;-92
2022/12/30 07:39:18;;;;;;;4.40;2.43;;;;;;;;;;5059380;28;20346;-91
2022/12/30 07:41:51;;;;;;;6.70;3.97;;;;;;;;;;5058496;28;20205;-93
2022/12/30 07:44:37;;;;;;;2.23;2.13;;;;;;;;;;5059727;28;20195;-92
2022/12/30 07:47:07;;;;;;;4.30;3.47;;;;;;;;;;5062331;28;20215;-92
2022/12/30 07:49:38;;;;;;;4.93;2.30;;;;;;;;;;5060242;28;20214;-90
2022/12/30 08:04:01;;;;;;;11.73;2.83;;;;;;;;;;5078184;28;20194;-91
2022/12/30 08:06:34;;;;;;;9.53;2.43;;;;;;;;;;5080408;28;20179;-91
2022/12/30 08:09:15;;;;;;;3.00;2.80;;;;;;;;;;5073466;28;20228;-93
2022/12/30 08:14:43;;;;;;;2.30;2.17;;;;;;;;;;5059080;28;20195;-92
2022/12/30 08:17:13;;;;;;;2.73;2.50;;;;;;;;;;5049738;28;20300;-94
2022/12/30 08:20:03;;;;;;;;;;;;;;;;;;;;;
2022/12/30 08:25:45;;;;;;;2.53;2.43;;;;;;;;;;5071634;23;20254;-91
2022/12/30 08:32:05;;;;;;;2.03;1.53;;;;;;;;;;5041333;28;20208;-91
2022/12/30 08:34:49;;;;;;;2.43;2.33;;;;;;;;;;5044382;28;20203;-92
2022/12/30 08:40:18;;;;;;;7.10;4.37;;;;;;;;;;5012819;28;20200;-93
2022/12/30 08:48:46;;;;;;;5.93;4.07;;;;;;;;;;5042673;28;20228;-92
2022/12/30 08:51:47;;;;;;;3.80;3.50;;;;;;;;;;5041520;28;20191;-91
2022/12/30 08:54:32;;;;;;;3.33;3.03;;;;;;;;;;5040290;28;20202;-92
2022/12/30 08:57:34;;;;;;;;;;;;;;;;;;;;;
2022/12/30 09:00:28;;;;;;;2.97;2.83;;;;;;;;;;5046995;28;20189;-94
2022/12/30 09:03:03;;;;;;;5.10;2.37;;;;;;;;;;5048199;28;20205;-93
2022/12/30 09:08:41;;;;;;;6.23;3.07;;;;;;;;;;5040780;28;20754;-93
2022/12/30 09:46:43;;;;;;;2.53;2.37;;;;;;;;;;5069266;28;20291;-90
2022/12/30 09:49:52;;;;;;;;;;;;;;;;;;;;;
2022/12/30 09:52:33;;;;;;;3.23;2.30;;;;;;;;;;5062978;28;20237;-92
2022/12/30 09:55:21;;;;;;;5.40;3.00;;;;;;;;;;5058600;28;20221;-91
2022/12/30 09:58:21;;;;;;;;;;;;;;;;;;;;;
2022/12/30 10:00:56;;;;;;;7.37;5.03;;;;;;;;;;5057962;28;20222;-93
2022/12/30 10:03:40;;;;;;;2.87;2.70;;;;;;;;;;5054965;28;20230;-93
2022/12/30 10:18:07;;;;;;;9.67;2.63;;;;;;;;;;5056110;28;20278;-91
2022/12/30 10:59:00;;;;;;;3.07;2.87;;;;;;;;;;5014051;23;20268;-92
2022/12/30 13:18:09;;;;;;;2.53;2.33;;;;;;;;;;5004740;28;20234;-96
2022/12/30 13:21:12;;;;;;;2.00;1.57;;;;;;;;;;5009116;28;20209;-95
2022/12/30 13:30:19;;;;;;;3.63;2.23;;;;;;;;;;4988948;28;20241;-95
2022/12/30 13:39:06;;;;;;;3.63;1.83;;;;;;;;;;4993201;28;20231;-94
2022/12/30 14:04:35;;;;;;;3.33;3.03;;;;;;;;;;5020853;23;20596;-93
2022/12/30 14:12:42;;;;;;;0.63;0.63;;;;;;;;;;5672028;23;20219;-95
2022/12/30 14:26:44;;;;;;;2.40;2.13;;;;;;;;;;5899440;23;20224;-93
2022/12/30 14:29:37;;;;;;;4.50;2.10;;;;;;;;;;5619493;23;20233;-94
2022/12/30 16:07:48;;;;;;;2.43;1.83;;;;;;;;;;4973689;28;20618;-96
2022/12/30 16:10:32;;;;;;;1.80;1.70;;;;;;;;;;4986382;28;20242;-93
2022/12/30 16:13:03;;;;;;;3.97;1.43;;;;;;;;;;4983485;28;20225;-94
2022/12/30 16:15:47;;;;;;;3.67;1.27;;;;;;;;;;4980566;28;20369;-95
2022/12/30 16:18:30;;;;;;;1.30;1.23;;;;;;;;;;4982600;28;20720;-94
2022/12/30 16:23:54;;;;;;;11.57;2.17;;;;;;;;;;4990080;28;20272;-94
2022/12/30 16:26:34;;;;;;;4.90;1.63;;;;;;;;;;4989208;28;20268;-93
2022/12/30 16:29:11;;;;;;;3.53;2.67;;;;;;;;;;4993610;28;20634;-96
2022/12/30 16:31:59;;;;;;;2.13;1.97;;;;;;;;;;4995899;28;20228;-92
2022/12/30 16:34:31;;;;;;;1.10;1.10;;;;;;;;;;4987045;28;20233;-94
2022/12/30 16:37:16;;;;;;;3.23;1.83;;;;;;;;;;4980378;28;20340;-94
2022/12/30 16:40:21;;;;;;;7.80;2.70;;;;;;;;;;4983173;28;20232;-92
2022/12/30 16:43:03;;;;;;;7.07;0.80;;;;;;;;;;4981909;28;20225;-92
2022/12/30 16:45:49;;;;;;;1.47;1.37;;;;;;;;;;4988001;28;20221;-94
2022/12/30 16:48:21;;;;;;;3.10;1.33;;;;;;;;;;4996843;28;20231;-95
2022/12/30 16:51:08;;;;;;;1.17;1.00;;;;;;;;;;4979371;28;20460;-93
2022/12/30 16:53:42;;;;;;;3.20;1.37;;;;;;;;;;4978572;28;20260;-92
2022/12/30 16:56:26;;;;;;;1.37;1.37;;;;;;;;;;4977411;28;20226;-93
2022/12/30 16:59:12;;;;;;;;;;;;;;;;;;;;;
2022/12/30 17:01:57;;;;;;;2.40;1.70;;;;;;;;;;4995763;28;20224;-92
2022/12/30 17:04:51;;;;;;;1.07;1.07;;;;;;;;;;5017491;28;20205;-95
2022/12/30 17:07:34;;;;;;;2.70;1.67;;;;;;;;;;4987991;28;20221;-94
2022/12/30 17:13:23;;;;;;;2.87;1.00;;;;;;;;;;4995691;28;20236;-92
2022/12/30 17:15:56;;;;;;;7.00;1.90;;;;;;;;;;4998905;28;20229;-94
2022/12/30 17:19:03;;;;;;;;;;;;;;;;;;;;;
2022/12/30 17:21:49;;;;;;;3.30;2.57;;;;;;;;;;4996561;28;20250;-93
2022/12/30 17:24:21;;;;;;;4.13;2.63;;;;;;;;;;4998923;28;20208;-94
2022/12/30 17:27:24;;;;;;;16.47;5.33;;;;;;;;;;4998454;28;20225;-92
2022/12/30 17:30:15;;;;;;;4.50;2.37;;;;;;;;;;5006129;28;20228;-93
2022/12/30 17:32:49;;;;;;;1.33;0.70;;;;;;;;;;5012692;28;20280;-95
2022/12/30 17:35:22;;;;;;;1.70;1.63;;;;;;;;;;4996463;28;20229;-89
2022/12/30 17:37:49;;;;;;;1.83;0.97;;;;;;;;;;4998183;28;20221;-90
2022/12/30 17:40:30;;;;;;;0.70;0.70;;;;;;;;;;4996920;28;20783;-89
2022/12/30 17:42:59;;;;;;;1.03;1.03;;;;;;;;;;5004904;28;20309;-91
2022/12/30 17:45:45;;;;;;;8.07;2.60;;;;;;;;;;5016247;28;20217;-91
2022/12/30 17:48:41;;;;;;;4.70;3.43;;;;;;;;;;5016240;28;20237;-92
2022/12/30 17:51:25;;;;;;;3.63;2.93;;;;;;;;;;5015472;28;20229;-91
2022/12/30 17:53:58;;;;;;;4.47;2.07;;;;;;;;;;5006542;28;20229;-90
2022/12/30 18:02:11;;;;;;;0.97;0.97;;;;;;;;;;4993495;28;20686;-89
2022/12/30 18:04:53;;;;;;;1.73;1.63;;;;;;;;;;4992207;28;20232;-91
2022/12/30 18:07:38;;;;;;;2.50;2.07;;;;;;;;;;4995654;28;20221;-93
2022/12/30 18:10:12;;;;;;;2.20;1.27;;;;;;;;;;4997026;28;20267;-92
2022/12/30 18:12:53;;;;;;;1.40;1.40;;;;;;;;;;4996471;28;20225;-92
2022/12/30 18:15:39;;;;;;;1.60;1.50;;;;;;;;;;4996204;28;20613;-91
2022/12/30 18:18:21;;;;;;;2.83;1.23;;;;;;;;;;4997300;28;20465;-91
2022/12/30 18:20:52;;;;;;;4.17;2.87;;;;;;;;;;4998358;28;20235;-92
2022/12/30 18:23:28;;;;;;;1.77;1.67;;;;;;;;;;5006304;28;20292;-89
2022/12/30 18:26:07;;;;;;;2.07;1.90;;;;;;;;;;4997931;28;20252;-91
2022/12/30 18:28:35;;;;;;;2.73;2.50;;;;;;;;;;4994656;28;20227;-91
2022/12/30 18:31:18;;;;;;;10.50;4.03;;;;;;;;;;4994211;28;20245;-91
2022/12/30 18:33:48;;;;;;;3.90;2.77;;;;;;;;;;4991738;28;20228;-90
2022/12/30 18:36:19;;;;;;;5.20;4.73;;;;;;;;;;4994510;28;20221;-90
2022/12/30 18:41:49;;;;;;;4.93;2.20;;;;;;;;;;5016542;28;20220;-92
2022/12/30 18:44:32;;;;;;;6.57;3.07;;;;;;;;;;5006654;28;20213;-95
2022/12/30 18:47:02;;;;;;;3.80;3.10;;;;;;;;;;5001233;28;20221;-92
2022/12/30 18:49:31;;;;;;;2.07;1.87;;;;;;;;;;5012975;28;20224;-91
2022/12/30 18:54:52;;;;;;;3.07;2.73;;;;;;;;;;5007221;28;20241;-92
2022/12/30 18:57:26;;;;;;;3.03;1.93;;;;;;;;;;4997414;28;20229;-91
2022/12/30 19:00:09;;;;;;;3.53;3.23;;;;;;;;;;4993839;28;20240;-90
2022/12/30 19:05:37;;;;;;;3.10;2.40;;;;;;;;;;4990041;28;20258;-92
2022/12/30 19:14:20;;;;;;;3.30;2.07;;;;;;;;;;4984357;28;20222;-92
2022/12/30 19:17:04;;;;;;;1.63;1.63;;;;;;;;;;4965180;28;20229;-94
2022/12/30 19:19:36;;;;;;;2.23;2.03;;;;;;;;;;4977556;28;20229;-94
2022/12/30 19:22:13;;;;;;;2.77;1.23;;;;;;;;;;4985015;28;20337;-90
2022/12/30 19:25:01;;;;;;;6.80;2.27;;;;;;;;;;4989542;28;20228;-93
2022/12/30 19:27:32;;;;;;;6.10;2.37;;;;;;;;;;4976996;28;20233;-94
2022/12/30 19:33:15;;;;;;;3.63;1.87;;;;;;;;;;4971567;28;20230;-95
2022/12/30 19:35:58;;;;;;;1.80;1.13;;;;;;;;;;4976506;28;20226;-92
2022/12/30 19:38:26;;;;;;;3.50;1.77;;;;;;;;;;4979461;28;20221;-93
2022/12/30 19:41:02;;;;;;;10.20;2.70;;;;;;;;;;4977633;28;20245;-93
2022/12/30 19:43:36;;;;;;;1.83;1.73;;;;;;;;;;4991116;28;20325;-92
2022/12/30 19:46:20;;;;;;;1.10;1.10;;;;;;;;;;4990287;28;20229;-91
2022/12/30 19:57:18;;;;;;;3.37;1.87;;;;;;;;;;4983609;28;20250;-94
2022/12/30 20:00:16;;;;;;;2.47;2.37;;;;;;;;;;4984444;28;20237;-94
2022/12/30 20:03:16;;;;;;;3.23;3.00;;;;;;;;;;4985386;28;20240;-95
2022/12/30 20:06:09;;;;;;;2.43;2.33;;;;;;;;;;5002494;28;20232;-93
2022/12/30 20:08:50;;;;;;;2.93;1.90;;;;;;;;;;4997336;28;20232;-93
2022/12/30 20:11:22;;;;;;;3.07;2.33;;;;;;;;;;4995708;28;20247;-96
2022/12/30 20:14:02;;;;;;;1.40;1.33;;;;;;;;;;4997382;28;20213;-95
2022/12/30 20:16:45;;;;;;;3.03;1.83;;;;;;;;;;4999803;28;20227;-92
2022/12/30 20:19:34;;;;;;;2.80;2.57;;;;;;;;;;4996095;28;20218;-94
2022/12/30 20:25:23;;;;;;;1.70;1.53;;;;;;;;;;5000815;28;20628;-95
2022/12/30 20:28:04;;;;;;;3.67;1.57;;;;;;;;;;4999624;28;20229;-95
2022/12/30 20:30:39;;;;;;;2.10;1.97;;;;;;;;;;4997603;28;20240;-95
2022/12/30 20:33:13;;;;;;;3.57;2.03;;;;;;;;;;4993466;28;20225;-94
2022/12/30 20:36:01;;;;;;;1.07;1.07;;;;;;;;;;4996041;28;20232;-93
2022/12/30 20:41:35;;;;;;;0.43;0.43;;;;;;;;;;4995046;28;20225;-94
2022/12/30 20:44:17;;;;;;;2.43;2.30;;;;;;;;;;5002134;28;20252;-94
2022/12/30 20:49:31;;;;;;;1.17;1.17;;;;;;;;;;5006459;28;20232;-91
2022/12/30 20:52:04;;;;;;;2.87;1.13;;;;;;;;;;4997741;28;20268;-91
2022/12/30 20:54:39;;;;;;;1.87;1.77;;;;;;;;;;5005057;28;20221;-91
2022/12/30 20:57:11;;;;;;;3.03;1.43;;;;;;;;;;5015715;28;20225;-88
2022/12/30 20:59:49;;;;;;;0.83;0.83;;;;;;;;;;4995792;28;20224;-91
2022/12/30 21:02:21;;;;;;;2.17;2.00;;;;;;;;;;4997261;28;20267;-91
2022/12/30 21:04:55;;;;;;;2.13;1.23;;;;;;;;;;4998018;28;20221;-90
2022/12/30 21:07:23;;;;;;;2.03;1.37;;;;;;;;;;5005245;28;20225;-94
2022/12/30 21:10:02;;;;;;;3.43;1.93;;;;;;;;;;5000408;28;20244;-96
2022/12/30 21:12:43;;;;;;;2.60;2.53;;;;;;;;;;4998965;28;20308;-94
2022/12/30 21:15:33;;;;;;;;;;;;;;;;;;;;;
2022/12/30 21:18:10;;;;;;;1.23;1.13;;;;;;;;;;5005759;28;20225;-94
2022/12/30 21:20:43;;;;;;;1.10;1.10;;;;;;;;;;5002709;28;20688;-93
2022/12/30 21:23:18;;;;;;;9.90;2.13;;;;;;;;;;5041063;23;20305;-94
2022/12/30 21:25:56;;;;;;;1.10;1.10;;;;;;;;;;4988202;28;20225;-93
2022/12/30 21:28:30;;;;;;;1.10;1.10;;;;;;;;;;4978295;28;20232;-94
2022/12/30 21:31:05;;;;;;;1.77;1.63;;;;;;;;;;4978981;28;20237;-94
2022/12/30 21:36:35;;;;;;;2.30;1.53;;;;;;;;;;4979951;28;20225;-94
2022/12/30 22:02:48;;;;;;;1.07;1.07;;;;;;;;;;4972701;28;20229;-94
2022/12/30 22:05:28;;;;;;;1.33;1.23;;;;;;;;;;4979787;28;20584;-95
2022/12/30 22:08:19;;;;;;;4.33;2.30;;;;;;;;;;4979982;28;20277;-94
2022/12/30 22:10:54;;;;;;;0.60;0.60;;;;;;;;;;4960539;29;20639;-91
2022/12/30 22:13:41;;;;;;;1.73;1.73;;;;;;;;;;4964200;28;20237;-92
2022/12/30 22:16:28;;;;;;;1.13;1.00;;;;;;;;;;4978291;28;20226;-93
2022/12/30 22:18:57;;;;;;;3.50;2.17;;;;;;;;;;4976549;28;20302;-95
2022/12/30 22:21:40;;;;;;;2.10;2.00;;;;;;;;;;4978429;28;20717;-96
2022/12/30 22:24:28;;;;;;;4.70;1.77;;;;;;;;;;4977886;28;20234;-93
2022/12/30 22:27:04;;;;;;;4.13;2.43;;;;;;;;;;4978964;28;20229;-94
2022/12/30 22:29:34;;;;;;;3.97;2.07;;;;;;;;;;4978335;28;20276;-93
2022/12/30 22:32:05;;;;;;;1.53;1.53;;;;;;;;;;4979939;28;20244;-91
2022/12/30 22:34:46;;;;;;;1.77;1.43;;;;;;;;;;4978293;28;20229;-91
2022/12/30 22:37:27;;;;;;;1.17;1.17;;;;;;;;;;4980004;28;20729;-96
2022/12/30 22:40:00;;;;;;;2.93;1.27;;;;;;;;;;4976919;28;20233;-93
2022/12/30 22:45:17;;;;;;;2.07;1.50;;;;;;;;;;4978773;28;20210;-94
2022/12/30 22:50:56;;;;;;;1.33;1.33;;;;;;;;;;4973642;28;20304;-91
2022/12/30 22:54:02;;;;;;;2.73;1.80;;;;;;;;;;4982045;28;20230;-95
2022/12/30 22:56:39;;;;;;;3.10;1.10;;;;;;;;;;4979044;28;20268;-94
2022/12/30 22:59:22;;;;;;;;;;;;;;;;;;;;;
2022/12/30 23:01:54;;;;;;;2.67;2.47;;;;;;;;;;4979396;28;20613;-94
2022/12/30 23:04:25;;;;;;;2.13;2.03;;;;;;;;;;4987880;28;20218;-92
2022/12/30 23:06:58;;;;;;;1.70;1.60;;;;;;;;;;4996447;28;20268;-92
2022/12/30 23:09:33;;;;;;;6.80;1.63;;;;;;;;;;4992810;28;20282;-92
2022/12/30 23:16:05;;;;;;;2.07;1.97;;;;;;;;;;4995072;28;20299;-93
2022/12/30 23:17:52;;;;;;;7.93;1.90;;;;;;;;;;4978206;28;20229;-92
2022/12/30 23:20:24;;;;;;;2.33;2.13;;;;;;;;;;4977416;28;20330;-92
2022/12/30 23:25:53;;;;;;;2.00;1.50;;;;;;;;;;4986763;28;20773;-94
2022/12/30 23:28:28;;;;;;;1.77;1.67;;;;;;;;;;4981001;28;20226;-94
2022/12/30 23:31:11;;;;;;;0.50;0.50;;;;;;;;;;4983720;28;20256;-93
2022/12/30 23:36:50;;;;;;;0.47;0.47;;;;;;;;;;4953302;28;20412;-95
2022/12/30 23:39:24;;;;;;;0.90;0.87;;;;;;;;;;4978162;28;20205;-92
2022/12/30 23:41:54;;;;;;;0.60;0.60;;;;;;;;;;4978171;28;20202;-92
2022/12/30 23:44:30;;;;;;;0.90;0.90;;;;;;;;;;4978366;28;20206;-93
2022/12/30 23:50:01;;;;;;;0.80;0.80;;;;;;;;;;4965030;28;20248;-92
2022/12/30 23:52:33;;;;;;;0.63;0.63;;;;;;;;;;4979209;28;20317;-92
2022/12/30 23:55:11;;;;;;;4.77;1.53;;;;;;;;;;4984665;28;20194;-93
2022/12/30 23:57:46;;;;;;;2.47;1.70;;;;;;;;;;4983535;28;20198;-92
